KCDR/CDR METAR and TAF weather

Enter ICAO airport designator
Station Type Date Time Source
KCDR METAR 2022/01/18 05:53 UTC NOAA

KCDR 180553Z AUTO 24009KT 10SM CLR 02/M04 A2975 RMK AO2 SLP089 T00221044 10067 21017 56007


Station Type Date Time Source
KCDR Decoded METAR 2022/01/18 05:53 UTC NOAA

CHADRON MUNICIPAL AIRPORT, NE, United States (KCDR) 42-50N 103-06W 1010M
Jan 18, 2022 - 12:53 AM EST / 2022.01.18 0553 UTC
Wind: from the WSW (240 degrees) at 10 MPH (9 KT):0
Visibility: 10 mile(s):0
Sky conditions: clear
Temperature: 36.0 F (2.2 C)
Dew Point: 24.1 F (-4.4 C)
Relative Humidity: 61%
Pressure (altimeter): 29.75 in. Hg (1007 hPa)
Pressure tendency: 0.02 inches (0.7 hPa) lower than three hours ago
ob: KCDR 180553Z AUTO 24009KT 10SM CLR 02/M04 A2975 RMK AO2 SLP089 T00221044 10067 21017 56007
cycle: 6

Station Type Date Time Source
KCDR TAF 2022/01/18 06:22 UTC NOAA

TAF KCDR 180520Z 1806/1906 24006KT P6SM BKN150
FM181800 35015G23KT P6SM SCT100 BKN150
FM182100 36016G25KT P6SM SCT060 OVC080

Example: see airport list